Time;durP1;ratioP1;P1;durP2;ratioP2;P2;SDS_P1;SDS_P2;PMS_P1;PMS_P2;Temp;Humidity;BMP_temperature;BMP_pressure;BME280_temperature;BME280_humidity;BME280_pressure;Samples;Min_cycle;Max_cycle;Signal;HPM_P1;HPM_P2
2021/09/03 00:01:13;;;;;;;0.80;0.70;;;16.10;99.90;;;;;;5032661;28;20168;-76
2021/09/03 00:03:38;;;;;;;0.93;0.93;;;16.20;99.90;;;;;;5032611;28;20237;-76
2021/09/03 00:06:04;;;;;;;0.80;0.77;;;16.10;99.90;;;;;;5032325;28;20210;-76
2021/09/03 00:08:30;;;;;;;2.70;1.37;;;16.10;99.90;;;;;;5034862;28;20688;-76
2021/09/03 00:10:55;;;;;;;1.00;0.93;;;16.10;99.90;;;;;;5033424;28;20175;-76
2021/09/03 00:13:21;;;;;;;4.23;3.93;;;16.00;99.90;;;;;;5032201;28;20182;-76
2021/09/03 00:15:46;;;;;;;0.90;0.60;;;16.00;99.90;;;;;;5031961;28;20595;-76
2021/09/03 00:18:12;;;;;;;1.00;0.90;;;15.90;99.90;;;;;;5032253;28;20578;-76
2021/09/03 00:20:37;;;;;;;2.33;1.13;;;15.90;99.90;;;;;;5032248;28;20175;-76
2021/09/03 00:23:03;;;;;;;1.13;1.07;;;15.90;99.90;;;;;;5032177;28;20175;-76
2021/09/03 00:25:29;;;;;;;1.73;1.20;;;15.90;99.90;;;;;;5031988;28;20222;-76
2021/09/03 00:27:54;;;;;;;1.20;1.10;;;15.90;99.90;;;;;;5032246;28;20229;-76
2021/09/03 00:30:20;;;;;;;1.37;1.20;;;15.80;99.90;;;;;;5032022;28;20194;-76
2021/09/03 00:32:46;;;;;;;2.33;1.30;;;15.80;99.90;;;;;;5032219;28;20230;-76
2021/09/03 00:35:12;;;;;;;2.23;1.90;;;15.80;99.90;;;;;;5031641;28;20485;-76
2021/09/03 00:37:37;;;;;;;3.47;3.23;;;15.80;99.90;;;;;;5030579;28;20266;-76
2021/09/03 00:40:05;;;;;;;0.80;0.80;;;15.80;99.90;;;;;;5031942;28;20200;-76
2021/09/03 00:42:30;;;;;;;2.73;1.20;;;15.70;99.90;;;;;;5031949;28;20190;-76
2021/09/03 00:44:56;;;;;;;0.73;0.70;;;15.70;99.90;;;;;;5031650;28;20549;-76
2021/09/03 00:47:21;;;;;;;1.93;1.73;;;15.70;99.90;;;;;;5032014;28;20211;-76
2021/09/03 00:49:47;;;;;;;1.43;1.33;;;15.70;99.90;;;;;;5031933;28;20196;-76
2021/09/03 00:52:14;;;;;;;1.97;1.77;;;15.70;99.90;;;;;;5031934;28;20214;-75
2021/09/03 00:54:40;;;;;;;0.97;0.93;;;15.70;99.90;;;;;;5033586;28;20187;-76
2021/09/03 00:57:05;;;;;;;1.83;1.73;;;15.70;99.90;;;;;;5034703;28;20417;-76
2021/09/03 00:59:31;;;;;;;1.67;1.57;;;15.70;99.90;;;;;;5034686;28;20435;-77
2021/09/03 01:01:57;;;;;;;1.33;1.23;;;15.70;99.90;;;;;;5034940;28;20218;-76
2021/09/03 01:04:22;;;;;;;1.13;1.00;;;15.70;99.90;;;;;;5038944;28;20199;-76
2021/09/03 01:06:48;;;;;;;1.90;1.33;;;15.70;99.90;;;;;;5038755;28;20528;-76
2021/09/03 01:09:14;;;;;;;3.33;1.83;;;15.60;99.90;;;;;;5039253;28;20214;-76
2021/09/03 01:11:40;;;;;;;1.70;1.60;;;15.60;99.90;;;;;;5038857;28;20490;-76
2021/09/03 01:14:06;;;;;;;1.03;0.93;;;15.60;99.90;;;;;;5038717;28;20182;-76
2021/09/03 01:16:31;;;;;;;2.03;1.93;;;15.50;99.90;;;;;;5038906;28;20814;-76
2021/09/03 01:18:58;;;;;;;1.23;1.13;;;15.60;99.90;;;;;;5038743;28;20188;-76
2021/09/03 01:21:24;;;;;;;1.90;1.80;;;15.50;99.90;;;;;;5037702;28;20172;-76
2021/09/03 01:23:49;;;;;;;0.80;0.70;;;15.50;99.90;;;;;;5038115;28;20429;-76
2021/09/03 01:26:15;;;;;;;0.80;0.80;;;15.50;99.90;;;;;;5038262;28;20191;-76
2021/09/03 01:28:40;;;;;;;3.70;1.87;;;15.40;99.90;;;;;;5038636;28;20251;-76
2021/09/03 01:31:06;;;;;;;1.23;1.13;;;15.40;99.90;;;;;;5038897;28;20644;-76
2021/09/03 01:33:32;;;;;;;2.40;0.93;;;15.40;99.90;;;;;;5038960;28;20190;-76
2021/09/03 01:35:57;;;;;;;1.33;1.23;;;15.40;99.90;;;;;;5037796;28;20182;-76
2021/09/03 01:38:23;;;;;;;1.80;1.67;;;15.30;99.90;;;;;;5038979;28;20202;-76
2021/09/03 01:40:49;;;;;;;0.80;0.80;;;15.30;99.90;;;;;;5037398;28;20178;-76
2021/09/03 01:43:15;;;;;;;1.10;0.80;;;15.30;99.90;;;;;;5037145;28;20651;-76
2021/09/03 01:45:41;;;;;;;1.30;1.20;;;15.30;99.90;;;;;;5038847;28;20821;-78
2021/09/03 01:48:07;;;;;;;1.97;1.50;;;15.30;99.90;;;;;;5039357;28;20398;-78
2021/09/03 01:50:33;;;;;;;0.90;0.70;;;15.20;99.90;;;;;;5039099;28;20462;-78
2021/09/03 01:52:58;;;;;;;3.17;1.33;;;15.20;99.90;;;;;;5039598;28;20183;-78
2021/09/03 01:55:24;;;;;;;1.33;1.23;;;15.20;99.90;;;;;;5038792;28;20430;-76
2021/09/03 01:57:50;;;;;;;2.53;1.63;;;15.20;99.90;;;;;;5037925;28;20254;-78
2021/09/03 02:00:16;;;;;;;1.07;0.70;;;15.10;99.90;;;;;;5037083;28;20195;-77
2021/09/03 02:02:41;;;;;;;1.10;1.00;;;15.10;99.90;;;;;;5033835;28;20410;-76
2021/09/03 02:05:08;;;;;;;1.13;1.03;;;15.10;99.90;;;;;;5032012;28;20257;-76
2021/09/03 02:07:34;;;;;;;1.63;1.53;;;15.10;99.90;;;;;;5033647;28;20156;-76
2021/09/03 02:09:59;;;;;;;2.73;1.70;;;15.10;99.90;;;;;;5033554;28;20777;-76
2021/09/03 02:12:25;;;;;;;2.60;1.07;;;15.00;99.90;;;;;;5033477;28;20414;-76
2021/09/03 02:14:50;;;;;;;2.97;2.20;;;15.00;99.90;;;;;;5032908;28;20167;-76
2021/09/03 02:17:16;;;;;;;0.70;0.60;;;15.00;99.90;;;;;;5033327;28;20179;-76
2021/09/03 02:19:42;;;;;;;3.00;1.37;;;15.00;99.90;;;;;;5033311;28;20191;-76
2021/09/03 02:22:07;;;;;;;1.07;0.60;;;15.00;99.90;;;;;;5033422;28;20648;-76
2021/09/03 02:24:33;;;;;;;6.30;1.20;;;15.00;99.90;;;;;;5032867;28;20199;-76
2021/09/03 02:26:58;;;;;;;1.87;1.77;;;15.00;99.90;;;;;;5034295;28;20167;-76
2021/09/03 02:29:24;;;;;;;1.23;1.13;;;14.90;99.90;;;;;;5035590;28;20606;-76
2021/09/03 02:31:50;;;;;;;1.27;1.17;;;14.80;99.90;;;;;;5035467;28;20176;-76
2021/09/03 02:34:15;;;;;;;1.83;1.27;;;14.90;99.90;;;;;;5036407;28;20182;-76
2021/09/03 02:36:41;;;;;;;0.87;0.87;;;14.80;99.90;;;;;;5032581;28;20168;-76
2021/09/03 02:39:06;;;;;;;0.80;0.60;;;14.80;99.90;;;;;;5016604;28;20219;-76
2021/09/03 02:41:32;;;;;;;1.57;0.90;;;14.80;99.90;;;;;;5014789;28;20184;-76
2021/09/03 02:43:58;;;;;;;0.90;0.90;;;14.80;99.90;;;;;;5015128;28;20176;-76
2021/09/03 02:46:24;;;;;;;1.87;1.53;;;14.80;99.90;;;;;;5016234;28;20826;-76
2021/09/03 02:48:49;;;;;;;1.67;1.00;;;14.80;99.90;;;;;;5015004;28;20199;-76
2021/09/03 02:51:15;;;;;;;1.83;0.90;;;14.70;99.90;;;;;;5014828;28;20173;-76
2021/09/03 02:53:41;;;;;;;2.20;1.50;;;14.70;99.90;;;;;;5016016;28;20637;-76
2021/09/03 02:56:06;;;;;;;2.25;0.95;;;14.70;99.90;;;;;;4979665;28;1038217;-76
2021/09/03 02:58:32;;;;;;;1.00;0.80;;;14.60;99.90;;;;;;5018268;28;20188;-78
2021/09/03 03:00:57;;;;;;;2.13;1.47;;;14.60;99.90;;;;;;5017154;28;20624;-77
2021/09/03 03:03:23;;;;;;;1.10;0.90;;;14.50;99.90;;;;;;5017294;28;20179;-78
2021/09/03 03:05:48;;;;;;;5.13;1.03;;;14.50;99.90;;;;;;5017376;28;20661;-78
2021/09/03 03:08:14;;;;;;;0.70;0.53;;;14.50;99.90;;;;;;5018298;28;20542;-78
2021/09/03 03:10:40;;;;;;;1.00;0.70;;;14.50;99.90;;;;;;5012678;28;20652;-75
2021/09/03 03:13:25;;;;;;;0.80;0.80;;;14.40;99.90;;;;;;5013714;28;20257;-75
2021/09/03 03:15:51;;;;;;;3.93;1.57;;;14.40;99.90;;;;;;5012142;28;20183;-75
2021/09/03 03:18:18;;;;;;;1.27;0.93;;;14.40;99.90;;;;;;5013621;28;20903;-75
2021/09/03 03:20:45;;;;;;;1.00;0.90;;;14.40;99.90;;;;;;5012474;28;20415;-74
2021/09/03 03:23:11;;;;;;;1.20;1.10;;;14.40;99.90;;;;;;5013637;28;20407;-75
2021/09/03 03:25:37;;;;;;;2.03;1.93;;;14.40;99.90;;;;;;5012411;28;20461;-75
2021/09/03 03:28:02;;;;;;;1.53;0.90;;;14.30;99.90;;;;;;5013495;28;20399;-76
2021/09/03 03:30:28;;;;;;;1.10;1.00;;;14.30;99.90;;;;;;5013304;28;20442;-75
2021/09/03 03:32:53;;;;;;;0.83;0.83;;;14.30;99.90;;;;;;5013364;28;20176;-74
2021/09/03 03:35:19;;;;;;;2.50;1.40;;;14.30;99.90;;;;;;5013140;28;20199;-75
2021/09/03 03:37:45;;;;;;;0.70;0.60;;;14.30;99.90;;;;;;5013377;28;20176;-75
2021/09/03 03:40:11;;;;;;;1.83;1.10;;;14.30;99.90;;;;;;5011874;28;20649;-75
2021/09/03 03:42:36;;;;;;;1.10;0.93;;;14.30;99.90;;;;;;5013228;28;20168;-75
2021/09/03 03:45:02;;;;;;;1.10;0.73;;;14.30;99.90;;;;;;5012817;28;20537;-75
2021/09/03 03:47:28;;;;;;;1.30;1.17;;;14.20;99.90;;;;;;5013058;28;20180;-74
2021/09/03 03:49:53;;;;;;;0.90;0.70;;;14.20;99.90;;;;;;5013068;28;20427;-75
2021/09/03 03:52:19;;;;;;;4.17;3.83;;;14.10;99.90;;;;;;5013067;28;20214;-75
2021/09/03 03:54:44;;;;;;;1.20;1.10;;;14.20;99.90;;;;;;5011537;28;20211;-76
2021/09/03 03:57:10;;;;;;;1.73;1.63;;;14.20;99.90;;;;;;5012770;28;20238;-75
2021/09/03 03:59:35;;;;;;;2.23;0.90;;;14.20;99.90;;;;;;5011608;28;20680;-75
2021/09/03 04:02:01;;;;;;;0.77;0.60;;;14.20;99.90;;;;;;5012924;28;20175;-75
2021/09/03 04:04:26;;;;;;;1.50;1.40;;;14.20;99.90;;;;;;5012825;28;20198;-76
2021/09/03 04:06:52;;;;;;;2.30;2.10;;;14.20;99.90;;;;;;5012521;28;20164;-75
2021/09/03 04:09:17;;;;;;;1.70;1.20;;;14.20;99.90;;;;;;5012617;28;20602;-76
2021/09/03 04:11:46;;;;;;;1.77;1.07;;;14.10;99.90;;;;;;5012733;28;20179;-75
2021/09/03 04:14:12;;;;;;;3.90;2.07;;;14.10;99.90;;;;;;5013596;28;20583;-76
2021/09/03 04:16:38;;;;;;;2.03;1.93;;;14.10;99.90;;;;;;5013812;28;20419;-76
2021/09/03 04:19:04;;;;;;;1.63;1.13;;;14.00;99.90;;;;;;5015024;28;20184;-76
2021/09/03 04:21:30;;;;;;;4.60;3.63;;;14.00;99.90;;;;;;5014512;28;20172;-76
2021/09/03 04:23:55;;;;;;;5.57;4.00;;;14.00;99.90;;;;;;5013696;28;20433;-76
2021/09/03 04:26:21;;;;;;;2.80;0.87;;;13.90;99.90;;;;;;5013007;28;21072;-76
2021/09/03 04:28:46;;;;;;;1.13;0.80;;;13.90;99.90;;;;;;5012902;28;20292;-76
2021/09/03 04:31:12;;;;;;;3.80;1.63;;;13.90;99.90;;;;;;5013736;28;20172;-76
2021/09/03 04:33:37;;;;;;;0.80;0.60;;;13.90;99.90;;;;;;5013826;28;20179;-76
2021/09/03 04:36:03;;;;;;;1.40;0.90;;;13.90;99.90;;;;;;5013934;28;20610;-76
2021/09/03 04:38:30;;;;;;;1.27;1.17;;;13.90;99.90;;;;;;5014089;28;20199;-76
2021/09/03 04:40:56;;;;;;;0.80;0.70;;;13.90;99.90;;;;;;5015550;28;20172;-76
2021/09/03 04:43:22;;;;;;;0.90;0.80;;;13.90;99.90;;;;;;5015270;28;20418;-76
2021/09/03 04:45:47;;;;;;;1.53;1.43;;;13.90;99.90;;;;;;5013898;28;20227;-76
2021/09/03 04:48:14;;;;;;;1.73;1.43;;;13.90;99.90;;;;;;5014124;28;20164;-76
2021/09/03 04:50:40;;;;;;;1.33;1.23;;;14.00;99.90;;;;;;5015373;28;20247;-76
2021/09/03 04:53:05;;;;;;;1.30;0.83;;;13.90;99.90;;;;;;5015427;28;20454;-76
2021/09/03 04:55:31;;;;;;;1.07;0.83;;;13.90;99.90;;;;;;5015733;28;20185;-76
2021/09/03 04:57:56;;;;;;;1.33;1.03;;;13.90;99.90;;;;;;5015468;28;20172;-76
2021/09/03 05:00:22;;;;;;;1.50;1.40;;;13.90;99.90;;;;;;5012673;28;20246;-75
2021/09/03 05:02:48;;;;;;;1.27;1.13;;;13.90;99.90;;;;;;5012138;28;20176;-75
2021/09/03 05:05:14;;;;;;;1.63;0.90;;;13.80;99.90;;;;;;5012892;28;20958;-76
2021/09/03 05:07:41;;;;;;;3.43;1.77;;;13.80;99.90;;;;;;5014496;28;20434;-76
2021/09/03 05:10:08;;;;;;;1.83;0.90;;;13.80;99.90;;;;;;5015795;28;20188;-76
2021/09/03 05:12:35;;;;;;;0.87;0.60;;;13.80;99.90;;;;;;5014545;28;20469;-76
2021/09/03 05:15:05;;;;;;;2.07;0.67;;;13.80;99.90;;;;;;5014133;28;20843;-75
2021/09/03 05:17:31;;;;;;;1.53;1.43;;;13.80;99.90;;;;;;5012107;28;20466;-75
2021/09/03 05:19:56;;;;;;;1.20;1.10;;;13.80;99.90;;;;;;5011970;28;20435;-76
2021/09/03 05:22:22;;;;;;;1.20;1.10;;;13.80;99.90;;;;;;5011960;28;20176;-75
2021/09/03 05:24:48;;;;;;;1.43;0.80;;;13.80;99.90;;;;;;5011637;28;20665;-75
2021/09/03 05:27:13;;;;;;;1.90;1.63;;;13.90;99.90;;;;;;5011778;28;20547;-76
2021/09/03 05:29:39;;;;;;;1.33;0.80;;;13.90;99.90;;;;;;5011810;28;20191;-75
2021/09/03 05:32:04;;;;;;;1.47;1.37;;;14.00;99.90;;;;;;5011801;28;20215;-76
2021/09/03 05:34:30;;;;;;;1.07;0.97;;;14.00;99.90;;;;;;5017408;28;20324;-78
2021/09/03 05:36:55;;;;;;;0.80;0.60;;;14.10;99.90;;;;;;5015922;28;20239;-78
2021/09/03 05:39:21;;;;;;;1.13;0.90;;;14.10;99.90;;;;;;5022630;28;20719;-76
2021/09/03 05:41:46;;;;;;;1.67;1.23;;;14.20;99.90;;;;;;5033419;28;20176;-75
2021/09/03 05:44:12;;;;;;;1.67;1.57;;;14.30;99.90;;;;;;5030126;28;20167;-76
2021/09/03 05:46:37;;;;;;;0.83;0.83;;;14.30;99.90;;;;;;5034431;28;20175;-78
2021/09/03 05:49:03;;;;;;;1.20;1.00;;;14.40;99.90;;;;;;5035206;28;20192;-75
2021/09/03 05:51:29;;;;;;;0.93;0.83;;;14.50;99.90;;;;;;5035343;28;20243;-78
2021/09/03 05:53:54;;;;;;;2.70;2.50;;;14.50;99.90;;;;;;5039457;28;20217;-78
2021/09/03 05:56:20;;;;;;;2.07;1.87;;;14.70;99.90;;;;;;5038148;28;20191;-75
2021/09/03 05:58:45;;;;;;;1.73;1.57;;;14.80;99.90;;;;;;5034895;28;20187;-75
2021/09/03 06:01:11;;;;;;;1.30;1.10;;;15.00;99.90;;;;;;5035072;28;20262;-75
2021/09/03 06:03:36;;;;;;;1.20;1.10;;;15.30;99.90;;;;;;5034870;28;20210;-75
2021/09/03 06:06:02;;;;;;;4.20;2.33;;;15.70;99.90;;;;;;5034451;28;20721;-76
2021/09/03 06:08:27;;;;;;;1.97;1.33;;;16.00;99.90;;;;;;5034772;28;20720;-76
2021/09/03 06:10:53;;;;;;;4.50;2.10;;;16.50;99.90;;;;;;5039879;28;20552;-78
2021/09/03 06:13:18;;;;;;;2.20;1.57;;;16.90;99.90;;;;;;5039631;28;20175;-78
2021/09/03 06:15:44;;;;;;;0.90;0.90;;;17.30;99.90;;;;;;5040680;28;20183;-77
2021/09/03 06:18:09;;;;;;;1.20;1.10;;;17.80;99.90;;;;;;5040296;28;20175;-79
2021/09/03 06:20:35;;;;;;;1.63;0.90;;;18.20;99.90;;;;;;5041413;28;20194;-79
2021/09/03 06:23:00;;;;;;;2.80;1.27;;;18.60;99.90;;;;;;5038295;28;20600;-76
2021/09/03 06:25:26;;;;;;;1.77;1.63;;;18.80;99.90;;;;;;5037972;28;20199;-77
2021/09/03 06:27:51;;;;;;;1.30;1.20;;;18.90;99.90;;;;;;5038194;28;20168;-78
2021/09/03 06:30:17;;;;;;;4.43;2.30;;;19.10;99.90;;;;;;5036777;28;20202;-77
2021/09/03 06:32:43;;;;;;;5.63;1.90;;;19.30;99.90;;;;;;5038207;28;20163;-77
2021/09/03 06:35:09;;;;;;;4.20;2.90;;;19.40;99.90;;;;;;5037739;28;20941;-77
2021/09/03 06:37:34;;;;;;;4.33;2.63;;;19.80;99.90;;;;;;5037969;28;20197;-77
2021/09/03 06:40:01;;;;;;;2.73;2.07;;;20.10;99.90;;;;;;5036308;28;20727;-77
2021/09/03 06:42:29;;;;;;;3.17;2.63;;;20.30;99.90;;;;;;5035913;28;20166;-76
2021/09/03 06:44:55;;;;;;;2.90;1.43;;;20.30;99.90;;;;;;5033749;28;20445;-76
2021/09/03 06:47:21;;;;;;;3.73;2.20;;;20.70;99.90;;;;;;5034218;28;20923;-76
2021/09/03 06:49:46;;;;;;;2.80;2.33;;;20.90;99.90;;;;;;5035824;28;20188;-77
2021/09/03 06:52:13;;;;;;;1.53;1.43;;;21.10;99.90;;;;;;5036980;28;20175;-77
2021/09/03 06:54:39;;;;;;;2.30;1.30;;;21.30;99.90;;;;;;5036385;28;20183;-77
2021/09/03 06:57:06;;;;;;;3.30;1.47;;;20.90;99.90;;;;;;5036616;28;20506;-77
2021/09/03 06:59:32;;;;;;;4.80;2.30;;;20.40;99.90;;;;;;5037800;28;20491;-77
2021/09/03 07:01:58;;;;;;;3.37;2.00;;;20.10;99.90;;;;;;5036619;28;20402;-76
2021/09/03 07:04:24;;;;;;;2.30;2.10;;;19.90;99.90;;;;;;5033750;28;20418;-76
2021/09/03 07:06:50;;;;;;;1.53;1.43;;;19.50;99.90;;;;;;5035822;28;20411;-78
2021/09/03 07:09:16;;;;;;;3.70;2.40;;;19.40;99.90;;;;;;5040065;28;20437;-77
2021/09/03 07:11:42;;;;;;;2.90;2.50;;;19.10;99.90;;;;;;5033419;28;20194;-76
2021/09/03 07:14:08;;;;;;;3.00;2.73;;;19.00;99.90;;;;;;5033596;28;20486;-77
2021/09/03 07:16:33;;;;;;;2.63;2.07;;;19.10;99.90;;;;;;5033420;28;20171;-76
2021/09/03 07:19:05;;;;;;;9.57;4.03;;;19.30;99.90;;;;;;5039581;28;20191;-78
2021/09/03 07:21:31;;;;;;;2.50;2.30;;;19.60;99.90;;;;;;5040599;28;20221;-78
2021/09/03 07:24:00;;;;;;;3.27;1.77;;;19.60;99.90;;;;;;5041170;28;20418;-79
2021/09/03 07:26:29;;;;;;;2.40;2.20;;;19.90;99.90;;;;;;5039233;28;20466;-78
2021/09/03 07:28:56;;;;;;;2.00;1.43;;;20.30;99.90;;;;;;5041056;28;20454;-79
2021/09/03 07:31:21;;;;;;;2.33;1.70;;;20.40;99.90;;;;;;5038703;28;20409;-79
2021/09/03 07:33:47;;;;;;;2.60;2.40;;;20.70;99.90;;;;;;5036694;28;20406;-79
2021/09/03 07:36:12;;;;;;;5.30;2.20;;;20.90;99.90;;;;;;5037556;28;20191;-78
2021/09/03 07:38:38;;;;;;;5.63;2.23;;;21.30;99.90;;;;;;5038864;28;20203;-78
2021/09/03 07:41:04;;;;;;;3.03;1.50;;;21.60;99.90;;;;;;5038772;28;20172;-79
2021/09/03 07:43:30;;;;;;;2.10;1.53;;;21.60;99.90;;;;;;5036166;28;20270;-78
2021/09/03 07:45:56;;;;;;;2.33;1.13;;;21.50;99.90;;;;;;5037414;28;20199;-77
2021/09/03 07:48:22;;;;;;;1.43;1.20;;;21.40;99.90;;;;;;5036164;28;20179;-77
2021/09/03 07:50:48;;;;;;;1.57;1.47;;;21.30;99.90;;;;;;5036947;28;20903;-76
2021/09/03 07:53:13;;;;;;;1.40;1.30;;;21.40;99.90;;;;;;5036738;28;20414;-77
2021/09/03 07:55:39;;;;;;;1.40;0.97;;;21.50;99.90;;;;;;5037500;28;20183;-79
2021/09/03 07:58:05;;;;;;;1.53;1.43;;;21.30;99.90;;;;;;5039222;28;20640;-79
2021/09/03 08:00:32;;;;;;;2.13;2.00;;;21.40;99.90;;;;;;5039486;28;20556;-78
2021/09/03 08:02:57;;;;;;;2.40;2.10;;;21.40;99.90;;;;;;5039628;28;20410;-79
2021/09/03 08:05:23;;;;;;;1.17;1.07;;;21.30;99.90;;;;;;5037612;28;20521;-76
2021/09/03 08:07:48;;;;;;;1.70;1.37;;;21.10;99.90;;;;;;5032579;28;20626;-76
2021/09/03 08:10:15;;;;;;;3.50;2.07;;;21.20;99.90;;;;;;5036909;28;20230;-79
2021/09/03 08:12:41;;;;;;;2.80;1.90;;;21.20;99.90;;;;;;5037948;28;20175;-77
2021/09/03 08:15:09;;;;;;;2.83;1.40;;;21.50;99.90;;;;;;5036346;28;20418;-77
2021/09/03 08:17:35;;;;;;;1.20;1.10;;;21.90;99.90;;;;;;5036445;28;20996;-79
2021/09/03 08:20:02;;;;;;;1.97;1.10;;;22.30;99.90;;;;;;5037428;28;20434;-79
2021/09/03 08:22:27;;;;;;;2.53;1.70;;;22.70;99.90;;;;;;5037694;28;20410;-78
2021/09/03 08:24:54;;;;;;;2.87;1.53;;;23.20;99.90;;;;;;5038062;28;20450;-79
2021/09/03 08:27:19;;;;;;;2.10;1.97;;;23.50;99.90;;;;;;5038716;28;20172;-78
2021/09/03 08:29:46;;;;;;;1.47;1.03;;;24.00;99.90;;;;;;5038294;28;20420;-79
2021/09/03 08:32:12;;;;;;;2.53;1.73;;;24.40;99.90;;;;;;5039115;28;20189;-79
2021/09/03 08:34:37;;;;;;;3.43;3.13;;;25.00;99.90;;;;;;5038805;28;20414;-78
2021/09/03 08:37:03;;;;;;;1.90;1.00;;;25.30;99.90;;;;;;5038032;28;20414;-79
2021/09/03 08:39:29;;;;;;;1.10;0.80;;;25.90;99.90;;;;;;5034856;28;20196;-77
2021/09/03 08:41:55;;;;;;;1.30;1.20;;;26.40;99.90;;;;;;5034049;28;20239;-77
2021/09/03 08:44:20;;;;;;;1.80;1.40;;;26.70;99.90;;;;;;5034117;28;20647;-77
2021/09/03 08:46:47;;;;;;;1.73;1.37;;;27.10;99.90;;;;;;5036564;28;20403;-78
2021/09/03 08:49:13;;;;;;;1.80;1.70;;;27.60;99.90;;;;;;5038996;28;20269;-79
2021/09/03 08:51:39;;;;;;;1.00;0.90;;;28.00;99.90;;;;;;5036137;28;20946;-77
2021/09/03 08:54:04;;;;;;;1.63;1.40;;;28.20;99.90;;;;;;5032457;28;20168;-77
2021/09/03 08:56:30;;;;;;;2.10;1.40;;;28.60;99.90;;;;;;5031873;28;20199;-77
2021/09/03 08:58:55;;;;;;;2.00;1.90;;;28.50;99.90;;;;;;5033439;28;20277;-77
2021/09/03 09:01:21;;;;;;;2.37;2.17;;;29.00;99.90;;;;;;5018339;28;20172;-78
2021/09/03 09:03:49;;;;;;;1.70;1.60;;;29.30;99.90;;;;;;5014136;28;20314;-77
2021/09/03 09:06:26;;;;;;;1.90;1.60;;;29.30;99.90;;;;;;5013191;28;20582;-76
2021/09/03 09:09:03;;;;;;;2.33;1.80;;;29.00;97.00;;;;;;5010767;28;20434;-76
2021/09/03 09:11:30;;;;;;;1.63;1.53;;;29.30;97.30;;;;;;5012158;28;20403;-77
2021/09/03 09:14:04;;;;;;;3.20;1.70;;;29.70;98.00;;;;;;5016495;28;20442;-79
2021/09/03 09:16:31;;;;;;;11.43;2.10;;;29.70;95.50;;;;;;5019661;28;20414;-79
2021/09/03 09:18:59;;;;;;;2.43;1.70;;;29.80;96.30;;;;;;5013218;28;20427;-76
2021/09/03 09:21:31;;;;;;;2.00;1.60;;;30.50;98.00;;;;;;5011782;28;20411;-76
2021/09/03 09:24:02;;;;;;;4.13;1.67;;;30.60;94.50;;;;;;5013536;28;20410;-76
2021/09/03 09:26:54;;;;;;;2.20;1.57;;;31.00;91.80;;;;;;5015638;28;20450;-77
2021/09/03 09:29:19;;;;;;;2.20;2.00;;;31.10;90.80;;;;;;5014630;28;20431;-76
2021/09/03 09:31:51;;;;;;;2.50;2.30;;;31.10;87.10;;;;;;5015895;28;20763;-77
2021/09/03 09:34:28;;;;;;;1.97;1.30;;;31.30;89.50;;;;;;5016223;28;20164;-77
2021/09/03 09:36:55;;;;;;;1.60;1.10;;;31.70;90.20;;;;;;5016010;28;20411;-77
2021/09/03 09:39:22;;;;;;;1.70;1.50;;;32.00;90.20;;;;;;5016401;28;20439;-77
2021/09/03 09:42:00;;;;;;;3.77;2.00;;;32.40;88.80;;;;;;5016616;28;20411;-77
2021/09/03 09:44:33;;;;;;;1.90;1.80;;;32.10;81.50;;;;;;5022264;28;20472;-78
2021/09/03 09:47:13;;;;;;;1.50;1.40;;;32.10;78.40;;;;;;5022502;28;20399;-76
2021/09/03 09:49:39;;;;;;;1.93;1.73;;;32.50;78.20;;;;;;5014054;28;20514;-76
2021/09/03 09:52:05;;;;;;;1.83;1.17;;;32.60;77.10;;;;;;5014147;28;20924;-79
2021/09/03 09:54:30;;;;;;;2.47;2.27;;;32.50;79.00;;;;;;5019849;28;20419;-77
2021/09/03 09:56:58;;;;;;;1.37;1.27;;;32.70;76.00;;;;;;5015726;28;20403;-77
2021/09/03 09:59:26;;;;;;;4.00;3.70;;;32.80;75.20;;;;;;5015225;28;20555;-77
2021/09/03 10:01:57;;;;;;;8.50;2.13;;;32.80;73.30;;;;;;5016255;28;20399;-77
2021/09/03 10:04:24;;;;;;;2.33;2.13;;;33.30;77.30;;;;;;5015707;28;20837;-77
2021/09/03 10:06:52;;;;;;;2.90;1.77;;;33.20;67.70;;;;;;5015259;28;20403;-76
2021/09/03 10:09:20;;;;;;;1.77;1.63;;;33.10;71.90;;;;;;5015002;28;20427;-77
2021/09/03 10:11:48;;;;;;;3.70;2.70;;;33.60;73.50;;;;;;5015214;28;20407;-77
2021/09/03 10:14:16;;;;;;;1.10;0.87;;;33.90;70.30;;;;;;5015060;28;20399;-77
2021/09/03 10:16:44;;;;;;;1.83;1.70;;;34.00;69.80;;;;;;5014630;28;20422;-76
2021/09/03 10:19:10;;;;;;;1.70;1.60;;;34.20;70.00;;;;;;5014931;28;20430;-76
2021/09/03 10:21:38;;;;;;;2.33;2.13;;;34.30;68.30;;;;;;5014892;28;20413;-76
2021/09/03 10:24:06;;;;;;;2.10;1.90;;;34.30;67.00;;;;;;5013885;28;20415;-79
2021/09/03 10:26:38;;;;;;;2.10;1.80;;;34.50;65.20;;;;;;5019606;28;20501;-79
2021/09/03 10:29:10;;;;;;;3.13;2.90;;;34.40;65.00;;;;;;5015552;28;20481;-77
2021/09/03 10:31:36;;;;;;;2.33;2.13;;;34.50;64.00;;;;;;5014048;28;20419;-76
2021/09/03 10:34:02;;;;;;;2.20;1.50;;;34.50;61.10;;;;;;5014624;28;20421;-77
2021/09/03 10:37:05;;;;;;;2.53;2.33;;;34.40;60.90;;;;;;5016127;28;20177;-77
2021/09/03 10:39:45;;;;;;;3.50;3.30;;;34.30;61.60;;;;;;5015116;28;20195;-77
2021/09/03 10:42:11;;;;;;;1.83;1.73;;;34.70;60.80;;;;;;5015322;28;20403;-77
2021/09/03 10:45:02;;;;;;;2.40;2.20;;;34.70;61.50;;;;;;5014885;28;20800;-76
2021/09/03 10:47:31;;;;;;;2.00;1.90;;;34.70;61.00;;;;;;5014291;28;20406;-76
2021/09/03 10:49:57;;;;;;;5.60;2.60;;;34.60;60.20;;;;;;5016476;28;20415;-79
2021/09/03 10:52:23;;;;;;;1.70;1.60;;;34.20;57.20;;;;;;5018644;28;20403;-76
2021/09/03 10:54:48;;;;;;;2.53;1.70;;;34.70;58.40;;;;;;5014469;28;20427;-76
2021/09/03 10:57:17;;;;;;;1.60;1.50;;;34.90;60.50;;;;;;5014108;28;20255;-76
2021/09/03 11:00:21;;;;;;;2.27;1.70;;;35.10;58.80;;;;;;5014036;28;20188;-77
2021/09/03 11:02:47;;;;;;;2.50;2.07;;;35.10;57.00;;;;;;4992210;28;20586;-76
2021/09/03 11:05:13;;;;;;;3.60;2.67;;;34.80;56.50;;;;;;4992051;28;20495;-76
2021/09/03 11:07:46;;;;;;;2.20;1.23;;;35.10;59.50;;;;;;5002685;28;20185;-76
2021/09/03 11:10:21;;;;;;;1.37;1.27;;;35.20;58.60;;;;;;5015091;28;20430;-76
2021/09/03 11:12:53;;;;;;;2.20;2.00;;;34.60;54.70;;;;;;5015242;28;20411;-77
2021/09/03 11:15:20;;;;;;;1.40;1.30;;;34.70;54.00;;;;;;5013657;28;20400;-77
2021/09/03 11:17:46;;;;;;;1.93;1.63;;;34.60;55.80;;;;;;5013745;28;20399;-76
2021/09/03 11:20:15;;;;;;;2.00;1.63;;;34.80;55.80;;;;;;5018110;28;20427;-77
2021/09/03 11:22:41;;;;;;;1.40;1.30;;;35.00;53.90;;;;;;5019040;28;20415;-80
2021/09/03 11:25:08;;;;;;;1.07;0.97;;;35.00;54.20;;;;;;5015314;28;20808;-76
2021/09/03 11:27:36;;;;;;;1.23;1.03;;;35.00;54.60;;;;;;5013614;28;20399;-76
2021/09/03 11:30:16;;;;;;;1.40;1.03;;;34.90;54.20;;;;;;5013592;28;21140;-76
2021/09/03 11:32:46;;;;;;;1.70;1.60;;;34.50;52.70;;;;;;5013566;28;20920;-76
2021/09/03 11:35:13;;;;;;;1.60;1.50;;;35.00;54.70;;;;;;5013224;28;20917;-76
2021/09/03 11:37:49;;;;;;;0.97;0.87;;;35.30;55.50;;;;;;5013359;28;20411;-76
2021/09/03 11:40:15;;;;;;;1.90;1.80;;;35.30;54.60;;;;;;5013571;28;20434;-76
2021/09/03 11:42:46;;;;;;;1.50;1.40;;;35.50;54.60;;;;;;5013207;28;20403;-76
2021/09/03 11:45:17;;;;;;;3.43;1.43;;;35.50;52.50;;;;;;5012935;28;20451;-76
2021/09/03 11:48:03;;;;;;;1.53;1.43;;;35.70;53.30;;;;;;5012837;28;20908;-76
2021/09/03 11:50:34;;;;;;;1.33;1.23;;;35.70;52.20;;;;;;5012909;28;20943;-76
2021/09/03 11:53:03;;;;;;;2.07;1.33;;;35.90;53.60;;;;;;5014132;28;20899;-77
2021/09/03 11:55:34;;;;;;;1.93;1.83;;;35.70;53.50;;;;;;5014118;28;20446;-77
2021/09/03 11:58:05;;;;;;;2.90;1.70;;;35.20;49.20;;;;;;5012990;28;20407;-75
2021/09/03 12:00:45;;;;;;;1.70;1.60;;;35.50;52.10;;;;;;5017429;28;20431;-79
2021/09/03 12:03:16;;;;;;;1.90;1.50;;;35.60;52.00;;;;;;5017766;28;20417;-78
2021/09/03 12:05:46;;;;;;;2.50;1.60;;;35.40;52.10;;;;;;5017839;28;20454;-79
2021/09/03 12:08:27;;;;;;;1.33;1.23;;;35.20;50.20;;;;;;5019222;28;20494;-78
2021/09/03 12:10:58;;;;;;;1.40;1.30;;;35.40;52.50;;;;;;5019848;28;20431;-79
2021/09/03 12:13:27;;;;;;;1.30;1.10;;;35.50;51.30;;;;;;5019029;28;20431;-79
2021/09/03 12:16:10;;;;;;;3.90;1.20;;;35.20;52.20;;;;;;5016615;28;21023;-77
2021/09/03 12:18:41;;;;;;;1.87;1.53;;;34.90;51.10;;;;;;5017746;28;21026;-78
2021/09/03 12:21:11;;;;;;;2.60;1.83;;;34.70;51.90;;;;;;5017572;28;20441;-77
2021/09/03 12:23:46;;;;;;;1.30;1.17;;;34.80;52.20;;;;;;5016707;28;20407;-78
2021/09/03 12:26:15;;;;;;;1.70;1.60;;;35.00;52.80;;;;;;5017097;28;20522;-78
2021/09/03 12:28:46;;;;;;;1.80;1.57;;;35.20;52.80;;;;;;5018328;28;20525;-79
2021/09/03 12:31:14;;;;;;;2.00;1.90;;;35.00;51.50;;;;;;5015629;28;20411;-77
2021/09/03 12:34:10;;;;;;;1.90;1.53;;;34.90;52.80;;;;;;5016844;28;20873;-78
2021/09/03 12:36:39;;;;;;;1.20;1.03;;;35.20;52.90;;;;;;5017541;28;20422;-76
2021/09/03 12:39:19;;;;;;;1.30;1.10;;;35.60;54.10;;;;;;5015925;28;20430;-79
2021/09/03 12:41:44;;;;;;;1.40;1.00;;;35.40;51.30;;;;;;5015440;28;20765;-78
2021/09/03 12:44:20;;;;;;;2.07;1.50;;;34.90;49.10;;;;;;5015811;28;20510;-78
2021/09/03 12:46:48;;;;;;;3.70;1.60;;;34.60;50.00;;;;;;5015380;28;20613;-77